Time;durP1;ratioP1;P1;durP2;ratioP2;P2;SDS_P1;SDS_P2;PMS_P1;PMS_P2;Temp;Humidity;BMP_temperature;BMP_pressure;BME280_temperature;BME280_humidity;BME280_pressure;Samples;Min_cycle;Max_cycle;Signal;HPM_P1;HPM_P2
2022/11/02 00:01:42;;;;;;;15.02;6.25;;;;;;;;;;4975730;28;20052;-76
2022/11/02 00:04:08;;;;;;;13.48;6.13;;;;;;;;;;4975749;28;20098;-71
2022/11/02 00:06:35;;;;;;;15.40;6.50;;;;;;;;;;4970343;28;20068;-73
2022/11/02 00:09:01;;;;;;;14.23;6.28;;;;;;;;;;4973782;28;20464;-75
2022/11/02 00:11:27;;;;;;;17.02;6.63;;;;;;;;;;4979069;28;20050;-72
2022/11/02 00:13:52;;;;;;;15.48;6.63;;;;;;;;;;4983262;28;20050;-73
2022/11/02 00:16:20;;;;;;;15.43;6.55;;;;;;;;;;4995903;28;20072;-72
2022/11/02 00:18:50;;;;;;;21.15;7.25;;;;;;;;;;4983412;28;20050;-73
2022/11/02 00:21:17;;;;;;;16.33;7.30;;;;;;;;;;4978993;28;20074;-73
2022/11/02 00:23:44;;;;;;;16.08;7.40;;;;;;;;;;4985836;28;20050;-74
2022/11/02 00:26:11;;;;;;;16.13;7.20;;;;;;;;;;4976099;28;20059;-73
2022/11/02 00:28:37;;;;;;;18.92;7.90;;;;;;;;;;4977446;28;20412;-73
2022/11/02 00:31:03;;;;;;;15.77;7.65;;;;;;;;;;4979240;28;20046;-73
2022/11/02 00:33:29;;;;;;;23.98;7.63;;;;;;;;;;4975688;28;20145;-74
2022/11/02 00:35:56;;;;;;;15.52;7.65;;;;;;;;;;4970669;28;20474;-73
2022/11/02 00:38:22;;;;;;;15.82;7.30;;;;;;;;;;4972773;28;20042;-73
2022/11/02 00:40:48;;;;;;;18.08;7.53;;;;;;;;;;4977988;28;20839;-73
2022/11/02 00:43:13;;;;;;;15.38;7.88;;;;;;;;;;4970061;28;20050;-73
2022/11/02 00:45:40;;;;;;;18.48;8.05;;;;;;;;;;4980721;28;20122;-73
2022/11/02 00:48:06;;;;;;;22.65;7.70;;;;;;;;;;4967973;28;20046;-72
2022/11/02 00:50:32;;;;;;;14.15;7.43;;;;;;;;;;4974283;28;20050;-72
2022/11/02 00:52:57;;;;;;;14.50;7.13;;;;;;;;;;4970508;28;20058;-71
2022/11/02 00:55:23;;;;;;;23.80;8.27;;;;;;;;;;4975246;28;20058;-74
2022/11/02 00:57:49;;;;;;;13.63;7.57;;;;;;;;;;4979561;28;20079;-73
2022/11/02 01:00:15;;;;;;;20.30;7.03;;;;;;;;;;4975645;28;20051;-74
2022/11/02 01:02:41;;;;;;;12.73;6.88;;;;;;;;;;4975967;28;20042;-72
2022/11/02 01:05:09;;;;;;;17.60;6.93;;;;;;;;;;4984440;28;20046;-73
2022/11/02 01:07:36;;;;;;;14.95;6.47;;;;;;;;;;4959349;28;20124;-72
2022/11/02 01:10:04;;;;;;;17.20;7.45;;;;;;;;;;4977786;28;20129;-72
2022/11/02 01:12:29;;;;;;;15.00;6.60;;;;;;;;;;4980588;28;20053;-72
2022/11/02 01:14:55;;;;;;;16.25;6.78;;;;;;;;;;4984186;28;20046;-74
2022/11/02 01:17:21;;;;;;;18.88;7.35;;;;;;;;;;4970466;28;20544;-72
2022/11/02 01:19:49;;;;;;;17.25;7.20;;;;;;;;;;4965873;28;20074;-74
2022/11/02 01:22:15;;;;;;;13.05;7.03;;;;;;;;;;4975670;28;20046;-73
2022/11/02 01:24:41;;;;;;;12.48;6.82;;;;;;;;;;4977432;28;20049;-73
2022/11/02 01:27:07;;;;;;;20.13;6.95;;;;;;;;;;4980010;28;20698;-71
2022/11/02 01:29:33;;;;;;;13.45;7.00;;;;;;;;;;4982659;28;20384;-72
2022/11/02 01:31:58;;;;;;;11.23;6.43;;;;;;;;;;4977395;28;20164;-69
2022/11/02 01:34:24;;;;;;;14.70;6.60;;;;;;;;;;4978617;28;20058;-72
2022/11/02 01:36:50;;;;;;;22.63;7.35;;;;;;;;;;4973093;28;20348;-71
2022/11/02 01:39:16;;;;;;;15.48;6.85;;;;;;;;;;4973112;28;20131;-70
2022/11/02 01:41:42;;;;;;;15.77;6.45;;;;;;;;;;4977881;28;20136;-70
2022/11/02 01:44:31;;;;;;;13.57;6.90;;;;;;;;;;4978273;28;20094;-69
2022/11/02 01:47:12;;;;;;;14.07;6.68;;;;;;;;;;4976803;28;20104;-74
2022/11/02 01:49:41;;;;;;;15.02;7.10;;;;;;;;;;4979536;28;20472;-71
2022/11/02 01:52:12;;;;;;;16.88;6.63;;;;;;;;;;4972218;28;20046;-72
2022/11/02 01:54:46;;;;;;;16.27;6.82;;;;;;;;;;4970677;28;20059;-71
2022/11/02 01:57:16;;;;;;;18.88;6.40;;;;;;;;;;4973823;28;20050;-72
2022/11/02 02:00:04;;;;;;;19.85;6.70;;;;;;;;;;4982848;28;20137;-71
2022/11/02 02:02:33;;;;;;;12.35;6.35;;;;;;;;;;4967375;28;20075;-73
2022/11/02 02:05:05;;;;;;;17.13;6.88;;;;;;;;;;4968054;28;20043;-72
2022/11/02 02:07:34;;;;;;;14.70;6.47;;;;;;;;;;4972578;28;20105;-71
2022/11/02 02:10:00;;;;;;;16.80;6.60;;;;;;;;;;4976765;28;20581;-71
2022/11/02 02:12:28;;;;;;;11.48;6.53;;;;;;;;;;4973070;28;20039;-71
2022/11/02 02:14:54;;;;;;;13.15;6.28;;;;;;;;;;4975750;28;20105;-71
2022/11/02 02:17:25;;;;;;;14.82;6.00;;;;;;;;;;4976095;28;20568;-73
2022/11/02 02:20:10;;;;;;;12.25;6.22;;;;;;;;;;4972349;28;20089;-71
2022/11/02 02:22:49;;;;;;;;;;;;;;;;;;4973032;28;20049;-72
2022/11/02 02:25:53;;;;;;;12.77;6.22;;;;;;;;;;4969968;28;19926;-71
2022/11/02 02:28:22;;;;;;;12.38;5.97;;;;;;;;;;4976921;28;20053;-72
2022/11/02 02:30:48;;;;;;;14.80;6.55;;;;;;;;;;4976031;28;20138;-71
2022/11/02 02:33:28;;;;;;;13.77;6.57;;;;;;;;;;4970005;28;20133;-74
2022/11/02 02:36:56;;;;;;;16.30;6.75;;;;;;;;;;4969930;28;20055;-70
2022/11/02 02:39:48;;;;;;;13.60;6.70;;;;;;;;;;4936365;28;20102;-72
2022/11/02 02:42:30;;;;;;;15.55;6.90;;;;;;;;;;4968658;28;20081;-70
2022/11/02 02:45:29;;;;;;;20.08;7.57;;;;;;;;;;4967346;28;20057;-69
2022/11/02 02:48:20;;;;;;;13.95;7.20;;;;;;;;;;4948869;28;20493;-72
2022/11/02 02:51:02;;;;;;;13.75;6.65;;;;;;;;;;4969149;28;20154;-71
2022/11/02 02:53:35;;;;;;;11.23;6.72;;;;;;;;;;4967639;28;20063;-71
2022/11/02 02:56:03;;;;;;;13.63;6.70;;;;;;;;;;4964754;28;20042;-69
2022/11/02 02:58:35;;;;;;;19.02;7.20;;;;;;;;;;4972070;28;20110;-69
2022/11/02 03:01:05;;;;;;;15.30;7.25;;;;;;;;;;4969700;28;20133;-70
2022/11/02 03:03:33;;;;;;;14.90;7.45;;;;;;;;;;4967978;28;20061;-71
2022/11/02 03:06:13;;;;;;;15.25;6.93;;;;;;;;;;4969964;28;20122;-76
2022/11/02 03:08:42;;;;;;;12.02;6.30;;;;;;;;;;4969079;28;20051;-70
2022/11/02 03:11:16;;;;;;;13.18;6.75;;;;;;;;;;4971485;28;20051;-70
2022/11/02 03:13:59;;;;;;;;;;;;;;;;;;4968330;28;20165;-71
2022/11/02 03:16:57;;;;;;;12.90;6.93;;;;;;;;;;4967244;28;19984;-72
2022/11/02 03:19:56;;;;;;;12.32;7.28;;;;;;;;;;4969742;28;20058;-70
2022/11/02 03:22:27;;;;;;;17.30;7.10;;;;;;;;;;4944230;28;20477;-69
2022/11/02 03:24:59;;;;;;;16.27;7.18;;;;;;;;;;4968257;28;20523;-70
2022/11/02 03:27:33;;;;;;;14.90;7.40;;;;;;;;;;4963546;28;20484;-70
2022/11/02 03:30:05;;;;;;;18.20;7.55;;;;;;;;;;4967199;28;20264;-70
2022/11/02 03:32:49;;;;;;;17.45;7.97;;;;;;;;;;4967332;28;20396;-70
2022/11/02 03:35:26;;;;;;;18.70;7.85;;;;;;;;;;4986610;28;20053;-69
2022/11/02 03:38:00;;;;;;;15.68;7.78;;;;;;;;;;4988095;28;20496;-71
2022/11/02 03:40:31;;;;;;;16.90;7.00;;;;;;;;;;4982218;28;20046;-71
2022/11/02 03:42:59;;;;;;;16.02;6.93;;;;;;;;;;4981929;28;20046;-69
2022/11/02 03:45:30;;;;;;;17.55;7.22;;;;;;;;;;4979942;28;20415;-71
2022/11/02 03:48:03;;;;;;;14.13;7.18;;;;;;;;;;4956765;28;20070;-70
2022/11/02 03:50:32;;;;;;;14.60;6.65;;;;;;;;;;4966754;28;20055;-72
2022/11/02 03:53:27;;;;;;;18.83;7.47;;;;;;;;;;4975169;28;20121;-69
2022/11/02 03:55:59;;;;;;;15.27;7.40;;;;;;;;;;4921575;29;20052;-70
2022/11/02 03:58:25;;;;;;;15.38;7.03;;;;;;;;;;4943804;29;20047;-69
2022/11/02 04:01:02;;;;;;;13.20;6.53;;;;;;;;;;4947150;29;20052;-73
2022/11/02 04:03:31;;;;;;;16.88;7.30;;;;;;;;;;4945652;29;20449;-71
2022/11/02 04:05:56;;;;;;;11.52;6.60;;;;;;;;;;4944692;29;20077;-71
2022/11/02 04:08:31;;;;;;;14.38;6.78;;;;;;;;;;4943706;28;20659;-71
2022/11/02 04:16:25;;;;;;;20.05;6.88;;;;;;;;;;4946244;29;20062;-70
2022/11/02 04:21:35;;;;;;;12.90;6.25;;;;;;;;;;4943189;28;20093;-70
2022/11/02 04:26:46;;;;;;;12.82;7.22;;;;;;;;;;4948661;29;20048;-71
2022/11/02 04:29:11;;;;;;;14.60;7.10;;;;;;;;;;4943170;28;20054;-70
2022/11/02 04:31:37;;;;;;;15.57;6.68;;;;;;;;;;4946131;29;20086;-69
2022/11/02 04:34:03;;;;;;;12.13;6.38;;;;;;;;;;4983802;28;20051;-70
2022/11/02 04:36:30;;;;;;;17.52;7.03;;;;;;;;;;4975259;28;20061;-72
2022/11/02 04:38:57;;;;;;;15.13;6.22;;;;;;;;;;4984183;28;20511;-71
2022/11/02 04:41:43;;;;;;;15.57;7.00;;;;;;;;;;4968885;28;20043;-70
2022/11/02 04:44:10;;;;;;;20.95;7.57;;;;;;;;;;4981458;28;20180;-72
2022/11/02 04:46:37;;;;;;;11.85;6.05;;;;;;;;;;4979665;28;20054;-70
2022/11/02 04:49:04;;;;;;;15.52;6.32;;;;;;;;;;4977490;28;20046;-72
2022/11/02 04:51:30;;;;;;;13.88;6.85;;;;;;;;;;4987762;28;20177;-70
2022/11/02 04:53:57;;;;;;;14.95;6.43;;;;;;;;;;4981841;28;20054;-77
2022/11/02 04:56:24;;;;;;;13.45;6.30;;;;;;;;;;4977316;28;20424;-70
2022/11/02 04:58:53;;;;;;;17.30;6.97;;;;;;;;;;4988096;28;20049;-75
2022/11/02 05:01:20;;;;;;;12.77;6.40;;;;;;;;;;4991660;28;20042;-69
2022/11/02 05:03:50;;;;;;;14.43;6.78;;;;;;;;;;4988790;28;20513;-70
2022/11/02 05:06:18;;;;;;;14.02;6.32;;;;;;;;;;4977658;28;20176;-71
2022/11/02 05:08:44;;;;;;;16.80;7.10;;;;;;;;;;4980300;28;20053;-71
2022/11/02 05:11:11;;;;;;;14.45;6.75;;;;;;;;;;4985299;28;20121;-72
2022/11/02 05:13:38;;;;;;;19.35;6.65;;;;;;;;;;4983547;28;20054;-71
2022/11/02 05:16:05;;;;;;;8.98;6.30;;;;;;;;;;4965177;28;20760;-71
2022/11/02 05:18:32;;;;;;;13.70;6.78;;;;;;;;;;4985396;28;20038;-72
2022/11/02 05:20:59;;;;;;;15.73;6.50;;;;;;;;;;4986822;28;20106;-69
2022/11/02 05:23:27;;;;;;;14.38;6.50;;;;;;;;;;4984692;28;20038;-69
2022/11/02 05:26:01;;;;;;;17.17;6.18;;;;;;;;;;4976014;28;20109;-72
2022/11/02 05:28:28;;;;;;;15.38;6.45;;;;;;;;;;4986122;28;20090;-73
2022/11/02 05:30:58;;;;;;;15.93;7.13;;;;;;;;;;4985625;28;20137;-70
2022/11/02 05:33:23;;;;;;;16.42;6.35;;;;;;;;;;4971087;28;20066;-69
2022/11/02 05:35:49;;;;;;;13.57;6.97;;;;;;;;;;4983025;28;20042;-70
2022/11/02 05:38:15;;;;;;;13.77;6.53;;;;;;;;;;4991229;28;20050;-69
2022/11/02 05:40:41;;;;;;;14.98;6.93;;;;;;;;;;4989166;28;20043;-72
2022/11/02 05:43:08;;;;;;;14.48;7.30;;;;;;;;;;4988990;28;20411;-73
2022/11/02 05:45:35;;;;;;;13.32;6.80;;;;;;;;;;4987889;28;20046;-73
2022/11/02 05:48:02;;;;;;;16.13;7.15;;;;;;;;;;4985524;28;20679;-73
2022/11/02 05:50:28;;;;;;;17.13;7.00;;;;;;;;;;4991327;28;20133;-73
2022/11/02 05:52:54;;;;;;;14.88;6.97;;;;;;;;;;4984287;28;20122;-72
2022/11/02 05:55:21;;;;;;;16.35;6.95;;;;;;;;;;4979293;28;20061;-70
2022/11/02 05:57:54;;;;;;;11.13;6.55;;;;;;;;;;4987831;28;20536;-71
2022/11/02 06:00:23;;;;;;;14.52;6.97;;;;;;;;;;4986453;28;20693;-71
2022/11/02 06:02:54;;;;;;;9.18;6.18;;;;;;;;;;4989815;28;20077;-70
2022/11/02 06:05:20;;;;;;;16.88;6.70;;;;;;;;;;4982700;28;20586;-70
2022/11/02 06:07:45;;;;;;;12.43;6.60;;;;;;;;;;4989085;28;20095;-71
2022/11/02 06:10:11;;;;;;;15.55;6.72;;;;;;;;;;4985503;28;20057;-70
2022/11/02 06:12:37;;;;;;;17.95;7.28;;;;;;;;;;4987417;28;20041;-72
2022/11/02 06:15:03;;;;;;;13.02;6.55;;;;;;;;;;4981309;28;20073;-74
2022/11/02 06:17:36;;;;;;;18.25;6.68;;;;;;;;;;4983864;28;20500;-71
2022/11/02 06:20:03;;;;;;;17.30;6.35;;;;;;;;;;4988454;28;20683;-73
2022/11/02 06:22:29;;;;;;;14.23;6.82;;;;;;;;;;4985049;28;20058;-70
2022/11/02 06:24:55;;;;;;;16.05;6.38;;;;;;;;;;4990546;28;20050;-72
2022/11/02 06:27:20;;;;;;;14.02;6.38;;;;;;;;;;4972432;28;20108;-72
2022/11/02 06:29:46;;;;;;;15.52;6.55;;;;;;;;;;4983510;28;20481;-72
2022/11/02 06:32:12;;;;;;;13.13;5.97;;;;;;;;;;4958912;28;20497;-72
2022/11/02 06:34:38;;;;;;;19.52;6.30;;;;;;;;;;4984995;28;20066;-74
2022/11/02 06:37:04;;;;;;;16.00;6.18;;;;;;;;;;4982354;28;20093;-74
2022/11/02 06:39:30;;;;;;;18.00;5.95;;;;;;;;;;4990256;28;20042;-75
2022/11/02 06:41:56;;;;;;;15.43;6.47;;;;;;;;;;4991950;28;20137;-74
2022/11/02 06:44:22;;;;;;;18.00;6.60;;;;;;;;;;4984993;28;20046;-71
2022/11/02 06:46:48;;;;;;;20.00;6.70;;;;;;;;;;4994847;28;20305;-72
2022/11/02 06:49:14;;;;;;;10.25;5.70;;;;;;;;;;4987130;28;20062;-73
2022/11/02 06:51:40;;;;;;;12.60;6.10;;;;;;;;;;4969640;28;20423;-71
2022/11/02 06:54:06;;;;;;;21.33;7.03;;;;;;;;;;4988910;28;20050;-71
2022/11/02 06:56:31;;;;;;;12.68;5.97;;;;;;;;;;4988705;28;20050;-70
2022/11/02 06:58:57;;;;;;;11.05;5.50;;;;;;;;;;4972396;28;20054;-71
2022/11/02 07:01:23;;;;;;;13.13;6.00;;;;;;;;;;4987059;28;20448;-70
2022/11/02 07:03:49;;;;;;;14.93;6.03;;;;;;;;;;4981080;28;20415;-71
2022/11/02 07:06:15;;;;;;;16.58;6.25;;;;;;;;;;4981783;28;20497;-71
2022/11/02 07:08:41;;;;;;;14.15;5.90;;;;;;;;;;4975733;28;20101;-71
2022/11/02 07:11:07;;;;;;;13.98;6.05;;;;;;;;;;4983625;28;20423;-73
2022/11/02 07:13:33;;;;;;;17.98;5.88;;;;;;;;;;4982006;28;20054;-71
2022/11/02 07:15:59;;;;;;;17.02;6.13;;;;;;;;;;4988503;28;20046;-70
2022/11/02 07:18:25;;;;;;;17.95;6.57;;;;;;;;;;4980681;28;20266;-69
2022/11/02 07:20:50;;;;;;;14.93;6.40;;;;;;;;;;4984096;28;20046;-70
2022/11/02 07:23:16;;;;;;;16.67;6.90;;;;;;;;;;4976392;28;20041;-74
2022/11/02 07:25:42;;;;;;;20.45;6.25;;;;;;;;;;4982978;28;20500;-69
2022/11/02 07:28:08;;;;;;;17.70;6.03;;;;;;;;;;4978115;28;20071;-69
2022/11/02 07:30:34;;;;;;;16.85;6.07;;;;;;;;;;4981133;28;20054;-70
2022/11/02 07:33:01;;;;;;;15.40;6.18;;;;;;;;;;4978819;28;20061;-72
2022/11/02 07:35:27;;;;;;;15.35;6.57;;;;;;;;;;4983511;28;20050;-70
2022/11/02 07:38:00;;;;;;;18.17;6.57;;;;;;;;;;4979019;28;20058;-69
2022/11/02 07:40:26;;;;;;;15.30;6.18;;;;;;;;;;4982395;28;20050;-72
2022/11/02 07:42:53;;;;;;;12.50;5.90;;;;;;;;;;4976662;28;20492;-72
2022/11/02 07:45:21;;;;;;;54.50;9.60;;;;;;;;;;4980188;28;20111;-69
2022/11/02 07:47:48;;;;;;;28.27;6.82;;;;;;;;;;4987929;28;20050;-69
2022/11/02 07:50:17;;;;;;;20.08;5.88;;;;;;;;;;4974480;28;20109;-71
2022/11/02 07:52:54;;;;;;;19.25;7.05;;;;;;;;;;4982849;28;20054;-71
2022/11/02 07:55:23;;;;;;;21.20;6.85;;;;;;;;;;4984135;28;20256;-72
2022/11/02 07:58:08;;;;;;;25.75;7.00;;;;;;;;;;4982290;28;21246;-72
2022/11/02 08:00:36;;;;;;;38.75;7.53;;;;;;;;;;4984452;28;20058;-72
2022/11/02 08:03:04;;;;;;;29.83;7.25;;;;;;;;;;4969930;28;20096;-72
2022/11/02 08:05:32;;;;;;;22.80;6.57;;;;;;;;;;4984199;28;20050;-71
2022/11/02 08:08:10;;;;;;;19.77;6.28;;;;;;;;;;4972758;28;20051;-71
2022/11/02 08:10:36;;;;;;;19.02;6.43;;;;;;;;;;4985856;28;20050;-74
2022/11/02 08:13:03;;;;;;;15.50;6.22;;;;;;;;;;4977351;28;20490;-72
2022/11/02 08:15:29;;;;;;;18.95;6.32;;;;;;;;;;4977895;28;20050;-73
2022/11/02 08:18:05;;;;;;;24.13;7.50;;;;;;;;;;4987828;28;20050;-72
2022/11/02 08:20:31;;;;;;;25.80;6.57;;;;;;;;;;4974915;28;20055;-73
2022/11/02 08:22:57;;;;;;;18.27;6.38;;;;;;;;;;4975612;28;20049;-73
2022/11/02 08:25:24;;;;;;;17.60;6.40;;;;;;;;;;4987642;28;20492;-71
2022/11/02 08:27:50;;;;;;;20.08;6.88;;;;;;;;;;4987365;28;20090;-73
2022/11/02 08:30:16;;;;;;;13.23;6.30;;;;;;;;;;4983639;28;20042;-64
2022/11/02 08:32:42;;;;;;;20.52;7.15;;;;;;;;;;4987784;28;20188;-65
2022/11/02 08:35:08;;;;;;;17.77;6.72;;;;;;;;;;4993765;28;20145;-69
2022/11/02 08:37:34;;;;;;;18.70;7.10;;;;;;;;;;4983678;28;20054;-62
2022/11/02 08:40:00;;;;;;;14.60;6.50;;;;;;;;;;4979505;28;20051;-64
2022/11/02 08:42:26;;;;;;;21.52;6.30;;;;;;;;;;4987441;28;20038;-66
2022/11/02 08:44:52;;;;;;;18.48;7.43;;;;;;;;;;4986440;28;20069;-62
2022/11/02 08:47:18;;;;;;;22.88;7.20;;;;;;;;;;4989103;28;20121;-63
2022/11/02 08:49:45;;;;;;;17.50;6.25;;;;;;;;;;4985263;28;20046;-62
2022/11/02 08:52:11;;;;;;;16.45;6.65;;;;;;;;;;4984302;28;20082;-63
2022/11/02 08:54:37;;;;;;;17.27;6.28;;;;;;;;;;4989780;28;20280;-68
2022/11/02 08:57:03;;;;;;;16.95;5.70;;;;;;;;;;4987225;28;20050;-62
2022/11/02 08:59:29;;;;;;;17.58;5.90;;;;;;;;;;4982414;28;20553;-65
2022/11/02 09:01:55;;;;;;;17.52;6.13;;;;;;;;;;4986300;28;20046;-62
2022/11/02 09:04:21;;;;;;;19.27;6.22;;;;;;;;;;4989242;28;20042;-63
2022/11/02 09:06:47;;;;;;;18.38;5.88;;;;;;;;;;4989708;28;20107;-64
2022/11/02 09:09:13;;;;;;;15.27;5.85;;;;;;;;;;4988109;28;20447;-63
2022/11/02 09:11:39;;;;;;;20.98;6.68;;;;;;;;;;4988502;28;20272;-63
2022/11/02 09:14:06;;;;;;;20.55;6.50;;;;;;;;;;4988236;28;23497;-63
2022/11/02 09:16:33;;;;;;;15.10;5.90;;;;;;;;;;4992115;28;20455;-63
2022/11/02 09:18:59;;;;;;;21.60;6.45;;;;;;;;;;4989006;28;20070;-62
2022/11/02 09:21:25;;;;;;;17.83;6.35;;;;;;;;;;4988421;28;20097;-63
2022/11/02 09:23:51;;;;;;;12.38;5.53;;;;;;;;;;4988513;28;20046;-60
2022/11/02 09:26:17;;;;;;;10.75;5.28;;;;;;;;;;4988871;28;20050;-64
2022/11/02 09:28:43;;;;;;;15.90;5.25;;;;;;;;;;4979582;28;20074;-62
2022/11/02 09:31:09;;;;;;;13.98;5.07;;;;;;;;;;4997225;28;20085;-62
2022/11/02 09:33:35;;;;;;;11.90;5.75;;;;;;;;;;4996405;28;20523;-62
2022/11/02 09:36:03;;;;;;;14.85;5.22;;;;;;;;;;4980609;28;20053;-71
2022/11/02 09:38:29;;;;;;;11.15;5.05;;;;;;;;;;4982295;28;20650;-69
2022/11/02 09:41:01;;;;;;;14.18;6.07;;;;;;;;;;4984065;28;20058;-70
2022/11/02 09:44:18;;;;;;;15.70;5.43;;;;;;;;;;4988228;28;20554;-69
2022/11/02 09:46:45;;;;;;;12.98;5.45;;;;;;;;;;4959820;28;20061;-71
2022/11/02 09:49:17;;;;;;;15.90;5.60;;;;;;;;;;4986855;28;20042;-70
2022/11/02 09:51:54;;;;;;;13.95;5.80;;;;;;;;;;4980355;28;20058;-72
2022/11/02 09:54:33;;;;;;;13.30;5.47;;;;;;;;;;4985084;28;20070;-72
2022/11/02 09:57:10;;;;;;;11.80;5.60;;;;;;;;;;4989650;28;20054;-70
2022/11/02 09:59:36;;;;;;;12.80;5.55;;;;;;;;;;4987626;28;20038;-72
2022/11/02 10:02:30;;;;;;;13.05;4.90;;;;;;;;;;4989437;28;20400;-72
2022/11/02 10:05:26;;;;;;;9.02;4.50;;;;;;;;;;4993830;28;20054;-72
2022/11/02 10:08:01;;;;;;;12.20;4.93;;;;;;;;;;4984079;28;20107;-74
2022/11/02 10:10:35;;;;;;;17.20;4.50;;;;;;;;;;4986394;28;20055;-71
2022/11/02 10:13:07;;;;;;;12.65;4.53;;;;;;;;;;4978010;28;20245;-73
2022/11/02 10:15:41;;;;;;;20.98;5.32;;;;;;;;;;4975164;28;20228;-71
2022/11/02 10:18:12;;;;;;;;;;;;;;;;;;4979485;28;20047;-69
2022/11/02 10:20:43;;;;;;;16.08;5.15;;;;;;;;;;4988838;28;19926;-70
2022/11/02 10:23:34;;;;;;;14.75;5.80;;;;;;;;;;4974404;28;20061;-72
2022/11/02 10:26:01;;;;;;;12.75;5.20;;;;;;;;;;4981828;28;20046;-73
2022/11/02 10:28:35;;;;;;;11.25;5.07;;;;;;;;;;4989775;28;20112;-71
2022/11/02 10:31:02;;;;;;;11.75;4.40;;;;;;;;;;4986049;28;20138;-71
2022/11/02 10:33:30;;;;;;;15.30;4.63;;;;;;;;;;4973429;28;20085;-71
2022/11/02 10:36:23;;;;;;;17.50;5.03;;;;;;;;;;4971550;28;20039;-69
2022/11/02 10:39:44;;;;;;;10.98;4.60;;;;;;;;;;4967449;28;20391;-72
2022/11/02 10:42:32;;;;;;;11.52;4.93;;;;;;;;;;4872566;29;20048;-71
2022/11/02 10:45:16;;;;;;;12.38;4.72;;;;;;;;;;4872411;29;20049;-72
2022/11/02 10:47:45;;;;;;;12.82;4.30;;;;;;;;;;4868822;29;20140;-71
2022/11/02 10:50:25;;;;;;;11.25;5.35;;;;;;;;;;4869466;29;20053;-72
2022/11/02 10:52:51;;;;;;;11.30;4.88;;;;;;;;;;4867080;29;20053;-70
2022/11/02 10:55:28;;;;;;;17.58;5.05;;;;;;;;;;4872045;29;20378;-71
2022/11/02 10:57:57;;;;;;;13.32;4.43;;;;;;;;;;4867591;29;20052;-71
2022/11/02 11:00:32;;;;;;;12.10;4.60;;;;;;;;;;4871820;29;20053;-70
2022/11/02 11:03:08;;;;;;;11.75;4.30;;;;;;;;;;4871440;29;20077;-72
2022/11/02 11:05:37;;;;;;;12.90;4.63;;;;;;;;;;4872099;29;20397;-70
2022/11/02 11:08:05;;;;;;;9.50;4.00;;;;;;;;;;4867686;29;20049;-70
2022/11/02 11:10:36;;;;;;;11.10;4.15;;;;;;;;;;4872364;29;20057;-70
2022/11/02 11:13:03;;;;;;;11.88;4.65;;;;;;;;;;4871979;29;20488;-69
2022/11/02 11:15:33;;;;;;;16.65;4.25;;;;;;;;;;4872569;29;20061;-70
2022/11/02 11:17:58;;;;;;;10.43;4.40;;;;;;;;;;4920368;29;20496;-70
2022/11/02 11:20:37;;;;;;;9.02;4.20;;;;;;;;;;4951749;28;20046;-69
2022/11/02 11:23:14;;;;;;;11.70;4.13;;;;;;;;;;4962718;28;20425;-69
2022/11/02 11:25:40;;;;;;;15.20;4.60;;;;;;;;;;4962558;28;20571;-69
2022/11/02 11:28:35;;;;;;;17.63;4.60;;;;;;;;;;4966890;28;20261;-69
2022/11/02 11:31:16;;;;;;;11.00;3.65;;;;;;;;;;4965413;28;20042;-69
2022/11/02 11:34:01;;;;;;;14.38;3.92;;;;;;;;;;4979625;28;20062;-70
2022/11/02 11:36:33;;;;;;;10.75;3.70;;;;;;;;;;4969634;28;20046;-71
2022/11/02 11:39:02;;;;;;;9.88;3.67;;;;;;;;;;4991576;28;20057;-71
2022/11/02 11:41:30;;;;;;;12.98;3.88;;;;;;;;;;4985988;28;20104;-69
2022/11/02 11:43:57;;;;;;;13.35;4.13;;;;;;;;;;4993063;28;20050;-70
2022/11/02 11:46:37;;;;;;;9.43;4.00;;;;;;;;;;4988884;28;20051;-73
2022/11/02 11:49:03;;;;;;;8.55;3.58;;;;;;;;;;4984442;28;20046;-69
2022/11/02 11:51:32;;;;;;;15.07;4.05;;;;;;;;;;4995042;28;20050;-73
2022/11/02 11:54:23;;;;;;;15.48;4.10;;;;;;;;;;4990242;28;20050;-71
2022/11/02 11:56:51;;;;;;;13.07;4.15;;;;;;;;;;4978424;28;20439;-70
2022/11/02 11:59:21;;;;;;;11.60;4.22;;;;;;;;;;4989409;28;20368;-72
2022/11/02 12:01:48;;;;;;;10.95;4.10;;;;;;;;;;4983807;28;20053;-71
2022/11/02 12:04:29;;;;;;;17.70;4.10;;;;;;;;;;4982551;28;20042;-71
2022/11/02 12:07:14;;;;;;;14.52;4.68;;;;;;;;;;4985493;28;20125;-74
2022/11/02 12:09:42;;;;;;;;;;;;;;;;;;4988578;28;20406;-71
2022/11/02 12:12:20;;;;;;;11.80;4.07;;;;;;;;;;4988138;28;20199;-70
2022/11/02 12:15:07;;;;;;;12.82;3.83;;;;;;;;;;4986621;28;20385;-68
2022/11/02 12:17:54;;;;;;;11.82;4.05;;;;;;;;;;4983926;28;20058;-69
2022/11/02 12:20:51;;;;;;;14.13;4.63;;;;;;;;;;4976500;28;20065;-70
2022/11/02 12:23:29;;;;;;;13.40;4.40;;;;;;;;;;4985046;28;20043;-69
2022/11/02 12:26:34;;;;;;;11.82;3.92;;;;;;;;;;4986188;28;20068;-70
2022/11/02 12:29:05;;;;;;;;;;;;;;;;;;4985251;28;20115;-70
2022/11/02 12:31:44;;;;;;;13.05;3.58;;;;;;;;;;4980816;28;19933;-73
2022/11/02 12:34:24;;;;;;;11.23;4.05;;;;;;;;;;4972966;28;20094;-70
2022/11/02 12:37:18;;;;;;;16.40;4.38;;;;;;;;;;4964218;28;20501;-69
2022/11/02 12:40:11;;;;;;;12.07;3.70;;;;;;;;;;4965107;28;20106;-72
2022/11/02 12:42:47;;;;;;;14.55;3.92;;;;;;;;;;4965338;28;20050;-71
2022/11/02 12:45:34;;;;;;;13.05;3.25;;;;;;;;;;4965672;28;20512;-72
2022/11/02 12:48:02;;;;;;;9.85;3.58;;;;;;;;;;4967237;28;20102;-74
2022/11/02 12:50:58;;;;;;;7.22;3.03;;;;;;;;;;4965857;28;20103;-71
2022/11/02 12:53:33;;;;;;;14.77;3.55;;;;;;;;;;4957041;28;20047;-73
2022/11/02 12:56:02;;;;;;;6.70;3.20;;;;;;;;;;4964700;28;20114;-72
2022/11/02 12:58:34;;;;;;;11.63;3.42;;;;;;;;;;4966927;28;20512;-69
2022/11/02 13:01:05;;;;;;;8.95;3.20;;;;;;;;;;4968306;28;20146;-67
2022/11/02 13:04:00;;;;;;;8.98;3.30;;;;;;;;;;4959443;28;20050;-71
2022/11/02 13:06:48;;;;;;;12.82;3.70;;;;;;;;;;4966203;28;20051;-70
2022/11/02 13:09:16;;;;;;;14.45;3.28;;;;;;;;;;4965536;28;20062;-72
2022/11/02 13:11:47;;;;;;;9.20;3.35;;;;;;;;;;4966412;28;20102;-69
2022/11/02 13:14:19;;;;;;;10.35;3.60;;;;;;;;;;4965734;28;20054;-69
2022/11/02 13:17:22;;;;;;;8.75;3.55;;;;;;;;;;4954379;28;20485;-70
2022/11/02 13:19:59;;;;;;;10.07;3.33;;;;;;;;;;4958138;28;20053;-71
2022/11/02 13:22:31;;;;;;;15.18;4.20;;;;;;;;;;4970455;28;20106;-70
2022/11/02 13:25:06;;;;;;;9.90;3.30;;;;;;;;;;4968459;28;20047;-69
2022/11/02 13:27:40;;;;;;;6.68;3.35;;;;;;;;;;4968460;28;20828;-68
2022/11/02 13:30:12;;;;;;;;;;;;;;;;;;4964786;28;20485;-69
2022/11/02 13:32:43;;;;;;;8.88;3.13;;;;;;;;;;4974713;28;19957;-68
2022/11/02 13:35:16;;;;;;;7.65;3.28;;;;;;;;;;4969436;28;20117;-70
2022/11/02 13:37:50;;;;;;;8.80;2.72;;;;;;;;;;4966351;28;20157;-70
2022/11/02 13:40:29;;;;;;;12.93;3.65;;;;;;;;;;4971453;28;20047;-69
2022/11/02 13:43:10;;;;;;;7.38;3.25;;;;;;;;;;4965403;28;20372;-71
2022/11/02 13:46:05;;;;;;;14.55;3.13;;;;;;;;;;4966209;28;20051;-67
2022/11/02 13:48:47;;;;;;;10.05;3.50;;;;;;;;;;4872626;29;20068;-67
2022/11/02 13:51:26;;;;;;;8.52;2.80;;;;;;;;;;4844072;29;20068;-71
2022/11/02 13:53:59;;;;;;;12.23;2.85;;;;;;;;;;4867848;29;20080;-72
2022/11/02 13:56:27;;;;;;;12.73;3.22;;;;;;;;;;4877820;29;20512;-69
2022/11/02 13:59:09;;;;;;;11.25;3.00;;;;;;;;;;4875739;29;20049;-68
2022/11/02 14:01:39;;;;;;;8.13;3.05;;;;;;;;;;4871913;29;20444;-76
2022/11/02 14:04:10;;;;;;;7.15;2.97;;;;;;;;;;4872420;29;20049;-73
2022/11/02 14:06:50;;;;;;;10.60;2.78;;;;;;;;;;4863762;29;20047;-72
2022/11/02 14:09:38;;;;;;;6.32;2.85;;;;;;;;;;4872747;29;20634;-71
2022/11/02 14:12:21;;;;;;;8.43;2.70;;;;;;;;;;4872629;29;20057;-74
2022/11/02 14:15:28;;;;;;;11.35;3.40;;;;;;;;;;4873211;29;20096;-76
2022/11/02 14:18:00;;;;;;;13.02;3.05;;;;;;;;;;4859367;29;20061;-73
2022/11/02 14:20:34;;;;;;;15.13;2.78;;;;;;;;;;4871796;29;20056;-72
2022/11/02 14:23:13;;;;;;;9.20;2.80;;;;;;;;;;4873230;29;20057;-75
2022/11/02 14:25:49;;;;;;;9.10;2.70;;;;;;;;;;4953177;28;20182;-75
2022/11/02 14:28:24;;;;;;;12.93;3.45;;;;;;;;;;4960490;28;20106;-76
2022/11/02 14:31:02;;;;;;;11.20;3.13;;;;;;;;;;4969352;28;20055;-74
2022/11/02 14:33:40;;;;;;;12.32;2.90;;;;;;;;;;4969163;28;20265;-77
2022/11/02 14:36:18;;;;;;;11.77;3.03;;;;;;;;;;4986661;28;20073;-74
2022/11/02 14:39:15;;;;;;;11.88;2.60;;;;;;;;;;4987908;28;20416;-76
2022/11/02 14:42:03;;;;;;;11.13;3.40;;;;;;;;;;4991837;28;20078;-77
2022/11/02 14:44:38;;;;;;;8.60;2.50;;;;;;;;;;4991699;28;20043;-74
2022/11/02 14:47:09;;;;;;;12.30;2.80;;;;;;;;;;4976330;28;20050;-76
2022/11/02 14:49:45;;;;;;;10.25;2.60;;;;;;;;;;4988724;28;20411;-72
2022/11/02 14:52:11;;;;;;;9.27;2.67;;;;;;;;;;4986246;28;20061;-77
2022/11/02 14:54:46;;;;;;;12.20;2.65;;;;;;;;;;4986404;28;20093;-73
2022/11/02 14:57:30;;;;;;;9.80;2.92;;;;;;;;;;4988392;28;20378;-75
2022/11/02 14:59:59;;;;;;;11.52;2.97;;;;;;;;;;4988217;28;20092;-76
2022/11/02 15:02:35;;;;;;;12.38;2.85;;;;;;;;;;4982634;28;20132;-76
2022/11/02 15:05:05;;;;;;;9.57;2.63;;;;;;;;;;4977121;28;20531;-74
2022/11/02 15:07:39;;;;;;;7.95;2.63;;;;;;;;;;4979314;28;20538;-64
2022/11/02 15:10:17;;;;;;;10.68;3.00;;;;;;;;;;4985295;28;20056;-64
2022/11/02 15:12:44;;;;;;;13.45;2.70;;;;;;;;;;4979252;28;20488;-67
2022/11/02 15:15:32;;;;;;;10.73;3.05;;;;;;;;;;4984301;28;20055;-67